Time;durP1;ratioP1;P1;durP2;ratioP2;P2;SDS_P1;SDS_P2;PMS_P1;PMS_P2;Temp;Humidity;BMP_temperature;BMP_pressure;BME280_temperature;BME280_humidity;BME280_pressure;Samples;Min_cycle;Max_cycle;Signal;HPM_P1;HPM_P2
2024/04/07 00:01:40;;;;;;;7.40;6.57;;;15.40;99.90;;;;;;5004871;28;20187;-47
2024/04/07 00:04:06;;;;;;;7.45;6.72;;;15.30;99.90;;;;;;4999392;28;20050;-49
2024/04/07 00:06:33;;;;;;;7.18;6.28;;;15.30;99.90;;;;;;5003746;28;20042;-44
2024/04/07 00:09:02;;;;;;;7.93;6.93;;;15.30;99.90;;;;;;4998003;28;20054;-48
2024/04/07 00:11:29;;;;;;;8.38;7.10;;;15.30;99.90;;;;;;5021873;28;20413;-44
2024/04/07 00:13:55;;;;;;;7.80;7.00;;;15.30;99.90;;;;;;5000351;28;20138;-51
2024/04/07 00:16:21;;;;;;;8.63;7.47;;;15.30;99.90;;;;;;5004405;28;20061;-49
2024/04/07 00:18:48;;;;;;;10.50;6.95;;;15.20;99.90;;;;;;5004058;28;20044;-45
2024/04/07 00:21:14;;;;;;;8.65;6.80;;;15.20;99.90;;;;;;5012272;28;20048;-47
2024/04/07 00:23:40;;;;;;;8.98;7.45;;;15.20;99.90;;;;;;5006008;28;20184;-46
2024/04/07 00:26:06;;;;;;;8.13;7.30;;;15.20;99.90;;;;;;4999160;28;20899;-46
2024/04/07 00:28:32;;;;;;;7.40;6.70;;;15.20;99.90;;;;;;5007161;28;20197;-48
2024/04/07 00:31:01;;;;;;;11.05;7.60;;;15.20;99.90;;;;;;4999461;28;20538;-47
2024/04/07 00:33:28;;;;;;;9.27;7.63;;;15.10;99.90;;;;;;5089776;28;20054;-48
2024/04/07 00:36:01;;;;;;;8.73;7.35;;;15.20;99.90;;;;;;4996685;28;20042;-47
2024/04/07 00:38:30;;;;;;;10.40;8.00;;;15.10;99.90;;;;;;4998796;28;20182;-48
2024/04/07 00:40:58;;;;;;;9.50;7.63;;;15.10;99.90;;;;;;5001471;28;20107;-50
2024/04/07 00:43:28;;;;;;;9.82;7.25;;;15.10;99.90;;;;;;4981054;28;20046;-49
2024/04/07 00:45:56;;;;;;;9.25;7.22;;;15.10;99.90;;;;;;5001387;28;20040;-49
2024/04/07 00:48:23;;;;;;;8.77;7.85;;;15.10;99.90;;;;;;4999709;28;20177;-51
2024/04/07 00:50:55;;;;;;;8.48;7.55;;;15.10;99.90;;;;;;5004166;28;20410;-51
2024/04/07 00:53:21;;;;;;;;;;;15.10;99.90;;;;;;5001004;28;20045;-43
2024/04/07 00:55:47;;;;;;;7.43;6.50;;;15.00;99.90;;;;;;5008427;28;19923;-43
2024/04/07 00:58:15;;;;;;;7.85;7.05;;;15.00;99.90;;;;;;5002996;28;20054;-47
2024/04/07 01:00:44;;;;;;;7.70;7.00;;;15.00;99.90;;;;;;4997780;28;20419;-45
2024/04/07 01:03:12;;;;;;;8.65;6.60;;;15.00;99.90;;;;;;5007552;28;20050;-49
2024/04/07 01:05:39;;;;;;;8.07;6.78;;;15.00;99.90;;;;;;5000077;28;20058;-49
2024/04/07 01:08:07;;;;;;;7.60;6.80;;;15.00;99.90;;;;;;5002805;28;20403;-51
2024/04/07 01:10:33;;;;;;;7.60;6.80;;;15.00;99.90;;;;;;5007120;28;20072;-47
2024/04/07 01:12:59;;;;;;;7.40;6.70;;;15.00;99.90;;;;;;5003508;28;20038;-47
2024/04/07 01:15:25;;;;;;;6.88;6.18;;;15.00;99.90;;;;;;5001888;28;20035;-48
2024/04/07 01:17:51;;;;;;;7.28;6.57;;;15.00;99.90;;;;;;5002500;28;20048;-46
2024/04/07 01:20:17;;;;;;;7.47;6.78;;;15.00;99.90;;;;;;4999482;28;20039;-49
2024/04/07 01:22:43;;;;;;;6.90;6.20;;;15.00;99.90;;;;;;5009290;28;20046;-50
2024/04/07 01:25:09;;;;;;;7.00;6.30;;;15.10;99.90;;;;;;4997957;28;20046;-48
2024/04/07 01:27:35;;;;;;;7.00;6.25;;;15.10;99.90;;;;;;5009815;28;20084;-45
2024/04/07 01:30:01;;;;;;;7.40;5.88;;;15.10;99.90;;;;;;5000530;28;20107;-48
2024/04/07 01:32:27;;;;;;;6.53;5.85;;;15.20;99.90;;;;;;5004551;28;20073;-46
2024/04/07 01:34:53;;;;;;;6.10;5.50;;;15.20;99.90;;;;;;5001074;28;20055;-47
2024/04/07 01:37:19;;;;;;;7.07;6.00;;;15.30;99.90;;;;;;5006174;28;20057;-49
2024/04/07 01:39:45;;;;;;;6.40;5.80;;;15.30;99.90;;;;;;5003497;28;20176;-48
2024/04/07 01:42:11;;;;;;;7.30;5.45;;;15.40;99.90;;;;;;5005479;28;20042;-50
2024/04/07 01:44:37;;;;;;;7.30;5.80;;;15.40;99.90;;;;;;5012608;28;20043;-49
2024/04/07 01:47:03;;;;;;;6.72;5.65;;;15.40;99.90;;;;;;5001986;28;20052;-47
2024/04/07 01:49:29;;;;;;;7.55;5.97;;;15.40;99.90;;;;;;4999202;28;20043;-45
2024/04/07 01:51:54;;;;;;;6.40;5.80;;;15.50;99.90;;;;;;5003541;28;20058;-47
2024/04/07 01:54:20;;;;;;;6.25;5.32;;;15.40;99.90;;;;;;5001785;28;20035;-48
2024/04/07 01:56:46;;;;;;;6.47;5.70;;;15.40;99.90;;;;;;5010045;28;20332;-48
2024/04/07 01:59:12;;;;;;;7.25;5.95;;;15.40;99.90;;;;;;5086054;28;20075;-44
2024/04/07 02:01:38;;;;;;;8.82;5.93;;;15.30;99.90;;;;;;5003434;28;20414;-48
2024/04/07 02:04:04;;;;;;;6.20;5.70;;;15.30;99.90;;;;;;5000493;28;20038;-46
2024/04/07 02:06:30;;;;;;;5.95;5.43;;;15.30;99.90;;;;;;5005442;28;20050;-47
2024/04/07 02:08:56;;;;;;;8.23;5.85;;;15.30;99.90;;;;;;5000298;28;20062;-47
2024/04/07 02:11:22;;;;;;;7.80;6.13;;;15.20;99.90;;;;;;5008193;28;20062;-50
2024/04/07 02:13:47;;;;;;;8.50;6.05;;;15.30;99.90;;;;;;5001281;28;20509;-45
2024/04/07 02:16:14;;;;;;;6.25;5.65;;;15.30;99.90;;;;;;5001534;28;20419;-44
2024/04/07 02:18:39;;;;;;;7.10;5.78;;;15.30;99.90;;;;;;5005768;28;20506;-49
2024/04/07 02:21:05;;;;;;;7.22;6.38;;;15.30;99.90;;;;;;5006583;28;20134;-49
2024/04/07 02:23:31;;;;;;;6.75;5.93;;;15.30;99.90;;;;;;5011406;28;20208;-49
2024/04/07 02:25:57;;;;;;;6.53;5.93;;;15.30;99.90;;;;;;5000648;28;20042;-49
2024/04/07 02:28:23;;;;;;;6.57;6.00;;;15.30;99.90;;;;;;5002338;28;20517;-45
2024/04/07 02:30:49;;;;;;;7.93;5.80;;;15.30;99.90;;;;;;5079201;28;20048;-46
2024/04/07 02:33:16;;;;;;;6.53;5.45;;;15.20;99.90;;;;;;5006715;28;20066;-46
2024/04/07 02:35:42;;;;;;;9.75;5.50;;;15.20;99.90;;;;;;5008845;28;20050;-53
2024/04/07 02:38:10;;;;;;;6.53;5.88;;;15.20;99.90;;;;;;5000108;28;20112;-45
2024/04/07 02:40:36;;;;;;;5.88;5.28;;;15.20;99.90;;;;;;5010100;28;20045;-50
2024/04/07 02:43:03;;;;;;;7.35;5.43;;;15.20;99.90;;;;;;5007246;28;20084;-46
2024/04/07 02:48:13;;;;;;;5.90;5.40;;;15.20;99.90;;;;;;5003344;28;20052;-46
2024/04/07 02:50:39;;;;;;;8.13;5.93;;;15.10;99.90;;;;;;5007306;28;20034;-50
2024/04/07 02:53:07;;;;;;;5.90;5.30;;;15.10;99.90;;;;;;4998404;28;20050;-45
2024/04/07 02:55:33;;;;;;;7.88;5.82;;;15.00;99.90;;;;;;5002687;28;20507;-46
2024/04/07 02:57:59;;;;;;;6.55;5.80;;;15.00;99.90;;;;;;5001258;28;20050;-51
2024/04/07 03:00:25;;;;;;;6.45;5.47;;;15.00;99.90;;;;;;5000628;28;20096;-43
2024/04/07 03:02:51;;;;;;;6.35;5.70;;;15.00;99.90;;;;;;5005985;28;20111;-45
2024/04/07 03:05:17;;;;;;;6.20;5.60;;;15.00;99.90;;;;;;5003829;28;20092;-51
2024/04/07 03:07:43;;;;;;;6.25;5.60;;;15.00;99.90;;;;;;5008176;28;20043;-49
2024/04/07 03:10:10;;;;;;;6.80;5.78;;;14.90;99.90;;;;;;5086135;28;20050;-48
2024/04/07 03:12:36;;;;;;;6.03;5.18;;;14.90;99.90;;;;;;5009914;28;20050;-51
2024/04/07 03:15:03;;;;;;;6.55;5.55;;;14.80;99.90;;;;;;5001807;28;20079;-49
2024/04/07 03:17:30;;;;;;;6.88;6.20;;;14.80;99.90;;;;;;4998757;28;20169;-48
2024/04/07 03:19:56;;;;;;;7.72;6.00;;;14.80;99.90;;;;;;5001189;28;20050;-47
2024/04/07 03:22:23;;;;;;;6.00;5.45;;;14.80;99.90;;;;;;5004507;28;20094;-44
2024/04/07 03:24:49;;;;;;;6.72;5.68;;;14.80;99.90;;;;;;5006958;28;20245;-47
2024/04/07 03:27:15;;;;;;;6.18;5.57;;;14.80;99.90;;;;;;5004821;28;20046;-46
2024/04/07 03:29:41;;;;;;;6.18;5.45;;;14.80;99.90;;;;;;5008408;28;20503;-47
2024/04/07 03:32:08;;;;;;;8.40;5.60;;;14.80;99.90;;;;;;5010425;28;20060;-48
2024/04/07 03:34:34;;;;;;;7.07;5.40;;;14.80;99.90;;;;;;5006039;28;20466;-51
2024/04/07 03:37:00;;;;;;;6.10;5.15;;;14.80;99.90;;;;;;5009706;28;20516;-49
2024/04/07 03:39:26;;;;;;;6.25;5.65;;;14.80;99.90;;;;;;5003630;28;20089;-48
2024/04/07 03:41:51;;;;;;;6.47;5.90;;;14.80;99.90;;;;;;5013471;28;20044;-46
2024/04/07 03:44:20;;;;;;;6.68;5.97;;;14.80;99.90;;;;;;5009108;28;20053;-48
2024/04/07 03:46:48;;;;;;;6.70;5.78;;;14.70;99.90;;;;;;5012425;28;20036;-49
2024/04/07 03:49:14;;;;;;;5.85;5.28;;;14.70;99.90;;;;;;5005937;28;20065;-49
2024/04/07 03:51:40;;;;;;;8.27;6.00;;;14.70;99.90;;;;;;5008889;28;20050;-48
2024/04/07 03:54:07;;;;;;;6.35;5.35;;;14.70;99.90;;;;;;5007733;28;20045;-47
2024/04/07 03:56:32;;;;;;;7.47;5.38;;;14.70;99.90;;;;;;5093226;27;20050;-48
2024/04/07 03:58:58;;;;;;;6.15;5.53;;;14.70;99.90;;;;;;5005340;28;20053;-51
2024/04/07 04:01:24;;;;;;;6.82;5.22;;;14.70;99.90;;;;;;5007099;28;20128;-53
2024/04/07 04:03:50;;;;;;;6.47;5.22;;;14.70;99.90;;;;;;5007263;28;20630;-44
2024/04/07 04:06:16;;;;;;;6.68;5.75;;;14.70;99.90;;;;;;5004434;28;20492;-43
2024/04/07 04:08:44;;;;;;;5.75;5.25;;;14.70;99.90;;;;;;5006644;28;20085;-48
2024/04/07 04:11:12;;;;;;;6.25;5.68;;;14.70;99.90;;;;;;5012365;28;20144;-46
2024/04/07 04:13:38;;;;;;;6.55;5.85;;;14.70;99.90;;;;;;5007409;28;20062;-48
2024/04/07 04:16:08;;;;;;;5.80;5.30;;;14.60;99.90;;;;;;5007010;28;20046;-50
2024/04/07 04:18:34;;;;;;;6.75;5.40;;;14.60;99.90;;;;;;4998047;28;20573;-49
2024/04/07 04:21:00;;;;;;;6.60;6.00;;;14.50;99.90;;;;;;5006275;28;20054;-46
2024/04/07 04:23:25;;;;;;;7.85;6.03;;;14.40;99.90;;;;;;5003276;28;20050;-48
2024/04/07 04:25:55;;;;;;;7.85;6.28;;;14.50;99.90;;;;;;5007990;28;20028;-42
2024/04/07 04:28:22;;;;;;;9.82;6.78;;;14.50;99.90;;;;;;5002100;28;20411;-46
2024/04/07 04:30:56;;;;;;;7.93;6.30;;;14.50;99.90;;;;;;5008081;28;20052;-48
2024/04/07 04:33:26;;;;;;;8.15;6.93;;;14.50;99.90;;;;;;5005761;28;20042;-47
2024/04/07 04:35:54;;;;;;;7.18;6.10;;;14.60;99.90;;;;;;5004235;28;20475;-46
2024/04/07 04:38:22;;;;;;;8.38;6.22;;;14.60;99.90;;;;;;5005280;28;20503;-50
2024/04/07 04:41:00;;;;;;;6.85;6.15;;;14.60;99.90;;;;;;5007851;28;20034;-50
2024/04/07 04:43:26;;;;;;;7.57;5.90;;;14.60;99.90;;;;;;5004341;28;20056;-46
2024/04/07 04:46:09;;;;;;;8.80;5.97;;;14.60;99.90;;;;;;5027172;28;20044;-49
2024/04/07 04:48:36;;;;;;;7.05;5.60;;;14.60;99.90;;;;;;5008433;28;20045;-48
2024/04/07 04:51:03;;;;;;;6.47;5.80;;;14.60;99.90;;;;;;4999073;28;20096;-52
2024/04/07 04:53:29;;;;;;;7.55;6.10;;;14.70;99.90;;;;;;5007695;28;20054;-45
2024/04/07 04:56:01;;;;;;;7.63;5.88;;;14.70;99.90;;;;;;5010482;28;20050;-46
2024/04/07 04:58:31;;;;;;;7.30;5.70;;;14.70;99.90;;;;;;5009910;28;20048;-46
2024/04/07 05:00:57;;;;;;;8.57;6.03;;;14.70;99.90;;;;;;5002813;28;20054;-50
2024/04/07 05:03:25;;;;;;;6.63;5.40;;;14.80;99.90;;;;;;5008119;28;20049;-45
2024/04/07 05:05:52;;;;;;;7.53;5.55;;;14.80;99.90;;;;;;4993440;28;20038;-44
2024/04/07 05:08:18;;;;;;;6.35;5.15;;;14.80;99.90;;;;;;5007780;28;20068;-48
2024/04/07 05:10:44;;;;;;;6.10;5.22;;;14.80;99.90;;;;;;5008496;28;20133;-46
2024/04/07 05:13:10;;;;;;;8.20;5.45;;;14.90;99.90;;;;;;5005610;28;20094;-47
2024/04/07 05:15:36;;;;;;;5.85;5.30;;;14.90;99.90;;;;;;5006372;28;20054;-44
2024/04/07 05:18:02;;;;;;;6.28;5.65;;;15.00;99.90;;;;;;5002553;28;20138;-45
2024/04/07 05:20:28;;;;;;;7.90;5.25;;;15.10;99.90;;;;;;5010249;28;20050;-46
2024/04/07 05:22:54;;;;;;;6.15;5.50;;;15.10;99.90;;;;;;5009577;28;20044;-46
2024/04/07 05:25:20;;;;;;;6.10;5.50;;;15.20;99.90;;;;;;5002591;28;20479;-50
2024/04/07 05:27:46;;;;;;;7.35;5.60;;;15.30;99.90;;;;;;4993309;28;20052;-43
2024/04/07 05:30:13;;;;;;;6.10;5.50;;;15.40;99.90;;;;;;5007888;28;20071;-47
2024/04/07 05:32:39;;;;;;;6.93;6.00;;;15.50;99.90;;;;;;5035104;28;20172;-50
2024/04/07 05:35:05;;;;;;;5.93;5.32;;;15.70;99.90;;;;;;4998571;28;20053;-46
2024/04/07 05:37:31;;;;;;;7.13;5.55;;;15.80;99.90;;;;;;5008776;28;20537;-48
2024/04/07 05:39:57;;;;;;;5.97;5.38;;;15.90;99.90;;;;;;4992732;28;20050;-43
2024/04/07 05:42:26;;;;;;;6.68;5.63;;;16.10;99.90;;;;;;5005015;28;20570;-45
2024/04/07 05:44:53;;;;;;;6.43;5.80;;;16.20;99.90;;;;;;5005640;28;20044;-50
2024/04/07 05:47:20;;;;;;;6.32;5.72;;;16.30;99.90;;;;;;5006030;28;20663;-48
2024/04/07 05:49:46;;;;;;;6.40;5.80;;;16.40;99.90;;;;;;5002471;28;20051;-47
2024/04/07 05:52:13;;;;;;;6.18;5.45;;;16.50;99.90;;;;;;5001912;28;20047;-43
2024/04/07 05:54:38;;;;;;;6.75;5.95;;;16.60;99.90;;;;;;4993383;28;20247;-49
2024/04/07 05:57:04;;;;;;;6.72;5.75;;;16.70;99.90;;;;;;5003316;28;20266;-48
2024/04/07 05:59:30;;;;;;;8.43;5.68;;;16.80;99.90;;;;;;5002819;28;20183;-47
2024/04/07 06:01:56;;;;;;;7.07;5.57;;;16.90;99.90;;;;;;5003314;28;20415;-50
2024/04/07 06:04:22;;;;;;;7.85;6.00;;;16.90;99.90;;;;;;4995026;28;20050;-52
2024/04/07 06:06:48;;;;;;;6.53;5.70;;;16.90;99.90;;;;;;5005622;28;20050;-49
2024/04/07 06:09:14;;;;;;;6.63;5.93;;;16.90;99.90;;;;;;5008035;28;20395;-47
2024/04/07 06:11:41;;;;;;;8.68;6.15;;;16.90;99.90;;;;;;5009646;28;20090;-47
2024/04/07 06:14:09;;;;;;;6.72;6.13;;;16.90;99.90;;;;;;5009422;28;20185;-45
2024/04/07 06:16:37;;;;;;;14.25;10.18;;;17.00;99.90;;;;;;5018357;28;20038;-47
2024/04/07 06:19:06;;;;;;;8.02;6.63;;;17.00;99.90;;;;;;5006879;28;20042;-41
2024/04/07 06:21:33;;;;;;;6.90;6.18;;;17.00;99.90;;;;;;5008173;28;20044;-52
2024/04/07 06:23:59;;;;;;;6.38;5.70;;;17.10;99.90;;;;;;5013886;28;20530;-45
2024/04/07 06:26:24;;;;;;;6.65;6.05;;;17.20;99.90;;;;;;5004516;28;20047;-45
2024/04/07 06:28:50;;;;;;;6.85;5.90;;;17.30;99.90;;;;;;5005093;28;20036;-46
2024/04/07 06:31:17;;;;;;;7.07;5.88;;;17.30;99.90;;;;;;5005838;28;20198;-46
2024/04/07 06:33:43;;;;;;;6.43;5.78;;;17.50;99.90;;;;;;5092656;28;20049;-49
2024/04/07 06:36:09;;;;;;;6.57;5.82;;;17.50;99.90;;;;;;5001969;28;20054;-48
2024/04/07 06:38:35;;;;;;;6.85;6.15;;;17.70;99.90;;;;;;5011157;28;20058;-45
2024/04/07 06:41:01;;;;;;;9.30;5.95;;;17.80;99.90;;;;;;5012366;28;20069;-47
2024/04/07 06:43:27;;;;;;;6.10;5.40;;;17.90;99.90;;;;;;5005294;28;20064;-45
2024/04/07 06:45:56;;;;;;;6.13;5.53;;;18.00;99.90;;;;;;5009963;28;20043;-49
2024/04/07 06:48:22;;;;;;;7.32;5.97;;;18.20;99.90;;;;;;4983171;28;20129;-46
2024/04/07 06:50:48;;;;;;;6.18;5.57;;;18.20;99.90;;;;;;5010628;28;20052;-48
2024/04/07 06:53:14;;;;;;;6.20;5.60;;;18.20;99.90;;;;;;4999875;28;20057;-47
2024/04/07 06:55:40;;;;;;;7.97;5.80;;;18.30;99.90;;;;;;5011031;28;20080;-48
2024/04/07 06:58:07;;;;;;;8.88;5.82;;;18.40;99.90;;;;;;5002475;28;20058;-45
2024/04/07 07:00:32;;;;;;;6.47;5.88;;;18.60;99.90;;;;;;5004076;28;20034;-49
2024/04/07 07:02:58;;;;;;;5.97;5.47;;;18.70;99.90;;;;;;5007551;28;20042;-44
2024/04/07 07:05:24;;;;;;;7.15;5.85;;;18.80;99.90;;;;;;5003831;28;20538;-48
2024/04/07 07:07:50;;;;;;;8.40;5.70;;;18.90;99.90;;;;;;5011506;28;20044;-48
2024/04/07 07:10:16;;;;;;;6.00;5.50;;;19.10;99.90;;;;;;5006817;28;20106;-46
2024/04/07 07:12:42;;;;;;;6.72;6.05;;;19.30;99.90;;;;;;5015675;28;20038;-45
2024/04/07 07:15:08;;;;;;;6.50;5.80;;;19.50;99.90;;;;;;5003852;28;20526;-49
2024/04/07 07:17:34;;;;;;;6.20;5.60;;;19.60;99.90;;;;;;5007182;28;20573;-47
2024/04/07 07:20:00;;;;;;;7.50;5.93;;;19.80;99.90;;;;;;5009064;28;20077;-51
2024/04/07 07:22:26;;;;;;;7.18;5.90;;;19.90;99.90;;;;;;5006800;28;20119;-48
2024/04/07 07:24:52;;;;;;;8.32;5.50;;;20.10;99.90;;;;;;5010307;28;20051;-46
2024/04/07 07:27:18;;;;;;;10.02;6.10;;;20.10;99.90;;;;;;5005348;28;20037;-48
2024/04/07 07:29:44;;;;;;;6.70;6.10;;;20.20;99.90;;;;;;5011960;28;20065;-49
2024/04/07 07:32:11;;;;;;;7.05;6.35;;;20.30;99.90;;;;;;5004449;28;20076;-44
2024/04/07 07:34:37;;;;;;;7.82;5.88;;;20.30;99.90;;;;;;5014252;28;20170;-47
2024/04/07 07:37:03;;;;;;;6.88;6.18;;;20.20;99.90;;;;;;5016258;28;20065;-47
2024/04/07 07:39:29;;;;;;;6.93;5.72;;;20.30;99.90;;;;;;5008222;28;20038;-49
2024/04/07 07:41:55;;;;;;;8.25;5.97;;;20.40;99.90;;;;;;5017189;28;20465;-53
2024/04/07 07:44:22;;;;;;;8.02;6.85;;;20.40;99.90;;;;;;5046206;28;20542;-51
2024/04/07 07:46:48;;;;;;;9.35;7.70;;;20.30;99.90;;;;;;5020463;28;20051;-46
2024/04/07 07:49:14;;;;;;;7.70;6.60;;;20.20;99.90;;;;;;5004193;28;20410;-48
2024/04/07 07:51:40;;;;;;;6.78;6.15;;;20.10;99.90;;;;;;5014234;28;20056;-44
2024/04/07 07:54:06;;;;;;;8.02;7.18;;;20.00;99.90;;;;;;5020574;28;20468;-47
2024/04/07 07:56:32;;;;;;;6.85;5.70;;;20.10;99.90;;;;;;5006366;28;20511;-43
2024/04/07 07:58:58;;;;;;;6.78;5.57;;;20.10;99.90;;;;;;5010642;28;20114;-46
2024/04/07 08:01:24;;;;;;;7.10;5.80;;;20.10;99.90;;;;;;5007401;28;20091;-47
2024/04/07 08:03:50;;;;;;;6.25;5.65;;;20.20;99.90;;;;;;5011503;28;20109;-47
2024/04/07 08:06:16;;;;;;;7.30;5.55;;;20.20;99.90;;;;;;5007838;28;20453;-44
2024/04/07 08:08:42;;;;;;;6.55;5.75;;;20.40;99.90;;;;;;5012328;28;20043;-44
2024/04/07 08:11:08;;;;;;;8.40;6.25;;;20.50;99.90;;;;;;5016526;28;20067;-43
2024/04/07 08:13:34;;;;;;;7.85;5.78;;;20.50;99.60;;;;;;5010312;28;20038;-44
2024/04/07 08:16:00;;;;;;;6.65;5.55;;;20.50;99.30;;;;;;5013808;28;20042;-50
2024/04/07 08:18:26;;;;;;;6.72;5.80;;;20.50;99.30;;;;;;5009830;28;20095;-51
2024/04/07 08:20:52;;;;;;;8.50;5.70;;;20.70;99.30;;;;;;5006803;28;20528;-53
2024/04/07 08:23:19;;;;;;;8.57;5.72;;;20.90;98.60;;;;;;5013401;28;20054;-51
2024/04/07 08:25:45;;;;;;;8.30;6.47;;;21.00;98.30;;;;;;5011211;28;20407;-50
2024/04/07 08:28:11;;;;;;;7.13;5.90;;;21.40;98.20;;;;;;4996832;28;20499;-47
2024/04/07 08:30:38;;;;;;;7.53;5.70;;;21.50;95.50;;;;;;5005904;28;20057;-48
2024/04/07 08:33:04;;;;;;;6.90;5.38;;;21.70;95.50;;;;;;5006814;28;20391;-44
2024/04/07 08:35:30;;;;;;;9.10;5.57;;;22.00;94.70;;;;;;5020079;28;20398;-48
2024/04/07 08:37:56;;;;;;;9.45;5.65;;;22.00;94.90;;;;;;5001413;28;20131;-49
2024/04/07 08:40:22;;;;;;;8.07;5.50;;;22.20;94.70;;;;;;4998579;28;20669;-46
2024/04/07 08:42:52;;;;;;;8.35;5.43;;;22.30;93.60;;;;;;4999563;28;20063;-47
2024/04/07 08:45:21;;;;;;;8.27;5.32;;;22.30;91.80;;;;;;5015746;28;20556;-48
2024/04/07 08:47:47;;;;;;;9.35;6.15;;;22.40;91.60;;;;;;5011452;28;20051;-48
2024/04/07 08:50:14;;;;;;;5.88;5.28;;;22.30;91.40;;;;;;4995545;28;20053;-50
2024/04/07 08:52:44;;;;;;;6.05;5.45;;;22.20;90.80;;;;;;5019486;28;20452;-46
2024/04/07 08:55:10;;;;;;;6.68;5.15;;;22.30;91.10;;;;;;5002272;28;20342;-45
2024/04/07 08:57:39;;;;;;;8.20;5.47;;;22.20;91.50;;;;;;5003062;28;20049;-47
2024/04/07 09:00:08;;;;;;;7.78;5.78;;;22.40;91.50;;;;;;4997916;28;20142;-50
2024/04/07 09:02:36;;;;;;;7.78;5.35;;;22.60;90.70;;;;;;5010642;28;20524;-49
2024/04/07 09:05:03;;;;;;;8.82;5.40;;;22.70;90.60;;;;;;4998000;28;20509;-51
2024/04/07 09:07:29;;;;;;;10.13;4.97;;;22.80;90.50;;;;;;5001528;28;20096;-52
2024/04/07 09:09:55;;;;;;;8.48;5.13;;;22.80;90.00;;;;;;5000562;28;20044;-50
2024/04/07 09:12:21;;;;;;;6.75;5.30;;;23.00;89.20;;;;;;5000386;28;20053;-48
2024/04/07 09:14:49;;;;;;;7.90;5.72;;;23.00;88.20;;;;;;5019858;28;20439;-51
2024/04/07 09:17:15;;;;;;;11.38;6.20;;;23.20;88.20;;;;;;5008912;28;20049;-47
2024/04/07 09:19:41;;;;;;;10.27;5.85;;;23.70;88.60;;;;;;5009333;28;20073;-49
2024/04/07 09:22:07;;;;;;;6.50;5.20;;;24.10;87.50;;;;;;4994593;28;20527;-50
2024/04/07 09:24:34;;;;;;;7.20;5.57;;;24.30;86.60;;;;;;5011654;28;20062;-47
2024/04/07 09:27:06;;;;;;;10.80;7.55;;;24.50;86.20;;;;;;5007822;28;20089;-48
2024/04/07 09:29:33;;;;;;;;;;;24.40;83.60;;;;;;5004500;28;20035;-51
2024/04/07 09:32:00;;;;;;;9.60;5.97;;;24.30;83.20;;;;;;5001885;28;20531;-50
2024/04/07 09:34:28;;;;;;;10.45;5.40;;;24.20;83.40;;;;;;5001038;28;20423;-50
2024/04/07 09:36:54;;;;;;;8.30;5.60;;;24.60;82.50;;;;;;5084737;28;20065;-49
2024/04/07 09:39:20;;;;;;;10.30;5.55;;;24.60;82.30;;;;;;5016083;28;20038;-50
2024/04/07 09:41:47;;;;;;;8.95;5.35;;;24.80;82.90;;;;;;5001902;28;20070;-50
2024/04/07 09:44:20;;;;;;;9.80;5.35;;;24.90;81.30;;;;;;5103908;27;20040;-50
2024/04/07 09:46:46;;;;;;;10.27;5.35;;;25.20;81.30;;;;;;4993862;28;20048;-47
2024/04/07 09:49:14;;;;;;;6.80;5.10;;;25.10;80.50;;;;;;5003722;28;20151;-49
2024/04/07 09:51:43;;;;;;;10.23;5.78;;;25.30;80.60;;;;;;5005189;28;20103;-48
2024/04/07 09:54:18;;;;;;;10.10;4.95;;;25.30;79.60;;;;;;4999726;28;20046;-52
2024/04/07 09:56:45;;;;;;;7.60;5.55;;;25.40;79.70;;;;;;5008816;28;20499;-49
2024/04/07 09:59:13;;;;;;;8.50;4.90;;;25.50;79.30;;;;;;4998440;28;20458;-52
2024/04/07 10:01:39;;;;;;;6.53;5.07;;;26.00;79.00;;;;;;4999287;28;20475;-50
2024/04/07 10:04:06;;;;;;;9.13;4.80;;;26.00;78.60;;;;;;5015619;28;20046;-52
2024/04/07 10:06:34;;;;;;;7.68;5.22;;;26.00;78.50;;;;;;5004042;28;20038;-47
2024/04/07 10:09:02;;;;;;;6.85;4.93;;;26.00;77.90;;;;;;5005442;28;20038;-47
2024/04/07 10:11:29;;;;;;;9.02;5.10;;;26.20;76.90;;;;;;5006185;28;20123;-47
2024/04/07 10:13:55;;;;;;;11.80;5.13;;;26.40;77.10;;;;;;5003514;28;20054;-50
2024/04/07 10:16:24;;;;;;;9.00;5.00;;;26.00;75.80;;;;;;5001407;28;20075;-50
2024/04/07 10:18:50;;;;;;;7.88;5.05;;;26.10;76.90;;;;;;4989362;28;20034;-49
2024/04/07 10:21:16;;;;;;;11.20;5.65;;;26.20;76.20;;;;;;4993898;28;20377;-49
2024/04/07 10:23:44;;;;;;;13.73;5.03;;;26.10;76.20;;;;;;4999064;28;20129;-47
2024/04/07 10:26:10;;;;;;;8.63;5.03;;;26.20;76.20;;;;;;5001327;28;20620;-48
2024/04/07 10:28:49;;;;;;;9.63;5.53;;;25.90;76.50;;;;;;4994122;28;20030;-49
2024/04/07 10:31:22;;;;;;;9.80;4.90;;;25.90;76.50;;;;;;5003984;28;20053;-46
2024/04/07 10:33:50;;;;;;;7.10;4.90;;;26.00;76.60;;;;;;5005412;28;20048;-51
2024/04/07 10:36:20;;;;;;;7.45;5.07;;;26.00;76.70;;;;;;5000754;28;20042;-52
2024/04/07 10:38:48;;;;;;;7.45;5.18;;;25.80;77.00;;;;;;5014053;28;20067;-46
2024/04/07 10:41:23;;;;;;;13.20;5.35;;;25.50;77.50;;;;;;4991528;28;20124;-51
2024/04/07 10:43:49;;;;;;;10.57;5.47;;;25.10;78.60;;;;;;5023625;28;20557;-48
2024/04/07 10:46:17;;;;;;;7.68;5.00;;;25.30;79.20;;;;;;5021409;28;20099;-48
2024/04/07 10:48:44;;;;;;;10.15;5.30;;;25.20;79.50;;;;;;5015615;28;20049;-48
2024/04/07 10:51:12;;;;;;;12.35;5.43;;;25.30;79.60;;;;;;5007369;28;20515;-48
2024/04/07 10:53:46;;;;;;;7.45;5.07;;;25.40;79.50;;;;;;5009998;28;20038;-55
2024/04/07 10:56:12;;;;;;;12.95;5.55;;;25.20;79.70;;;;;;5000908;28;20140;-52
2024/04/07 10:58:40;;;;;;;9.48;5.15;;;24.90;80.20;;;;;;5005446;28;20085;-46
2024/04/07 11:01:06;;;;;;;8.93;5.50;;;25.10;80.60;;;;;;4996051;28;20039;-47
2024/04/07 11:03:36;;;;;;;8.30;5.45;;;25.10;80.80;;;;;;5013311;28;20046;-50
2024/04/07 11:06:05;;;;;;;7.07;4.97;;;25.30;80.80;;;;;;5004636;28;20037;-51
2024/04/07 11:08:32;;;;;;;10.45;5.60;;;25.50;80.30;;;;;;5012699;28;20047;-44
2024/04/07 11:10:58;;;;;;;8.27;5.20;;;25.20;81.40;;;;;;5001292;28;20533;-47
2024/04/07 11:13:25;;;;;;;8.73;5.30;;;25.20;81.50;;;;;;5006684;28;20183;-49
2024/04/07 11:15:52;;;;;;;9.57;5.80;;;25.40;81.80;;;;;;5007503;28;20191;-50
2024/04/07 11:18:20;;;;;;;9.82;5.53;;;25.80;81.80;;;;;;4997415;28;20387;-46
2024/04/07 11:20:47;;;;;;;7.60;5.32;;;26.00;81.60;;;;;;5100250;27;20355;-49
2024/04/07 11:23:13;;;;;;;9.55;4.82;;;26.40;81.20;;;;;;4995747;28;20038;-50
2024/04/07 11:25:48;;;;;;;8.70;4.95;;;26.70;80.10;;;;;;5092936;28;20046;-46
2024/04/07 11:28:14;;;;;;;9.75;5.50;;;26.70;80.00;;;;;;4996839;28;20546;-49
2024/04/07 11:30:51;;;;;;;9.70;5.80;;;27.20;79.50;;;;;;5008062;28;20039;-46
2024/04/07 11:33:17;;;;;;;9.90;5.40;;;27.40;78.60;;;;;;4992965;28;20046;-53
2024/04/07 11:35:44;;;;;;;12.82;5.32;;;27.70;78.50;;;;;;5003694;28;20522;-50
2024/04/07 11:38:12;;;;;;;10.93;4.93;;;27.60;78.20;;;;;;5003375;28;20046;-48
2024/04/07 11:40:38;;;;;;;10.90;4.82;;;27.70;79.30;;;;;;5005643;28;20046;-48
2024/04/07 11:43:04;;;;;;;6.60;4.88;;;28.10;77.30;;;;;;4998321;28;20035;-47
2024/04/07 11:45:31;;;;;;;6.85;5.05;;;27.90;77.00;;;;;;5007383;28;20043;-49
2024/04/07 11:47:59;;;;;;;9.75;4.95;;;28.10;75.40;;;;;;4996787;28;20054;-45
2024/04/07 11:50:25;;;;;;;9.70;5.18;;;27.70;75.90;;;;;;5001923;28;20043;-49
2024/04/07 11:52:51;;;;;;;6.47;4.70;;;28.20;75.60;;;;;;5006663;28;20032;-49
2024/04/07 11:55:17;;;;;;;9.82;5.18;;;28.80;74.60;;;;;;5003320;28;20046;-48
2024/04/07 11:57:43;;;;;;;13.85;5.15;;;28.90;74.10;;;;;;5001184;28;20034;-48
2024/04/07 12:00:09;;;;;;;9.63;5.30;;;28.90;74.00;;;;;;5008781;28;20046;-49
2024/04/07 12:02:38;;;;;;;6.45;4.80;;;29.40;73.30;;;;;;4998497;28;20057;-45
2024/04/07 12:05:06;;;;;;;6.72;4.75;;;29.30;72.00;;;;;;5004597;28;20064;-52
2024/04/07 12:07:32;;;;;;;9.90;5.28;;;29.30;72.10;;;;;;5007217;28;20039;-47
2024/04/07 12:09:58;;;;;;;8.63;5.07;;;29.40;72.40;;;;;;5017031;28;20092;-46
2024/04/07 12:12:25;;;;;;;8.50;5.03;;;29.90;71.40;;;;;;4997707;28;20039;-51
2024/04/07 12:14:52;;;;;;;11.10;5.40;;;30.20;70.10;;;;;;4995914;28;20063;-54
2024/04/07 12:17:17;;;;;;;7.40;5.38;;;29.70;70.50;;;;;;5002368;28;20088;-50
2024/04/07 12:19:43;;;;;;;9.15;5.75;;;29.70;70.30;;;;;;5008379;28;20050;-49
2024/04/07 12:22:23;;;;;;;7.97;5.55;;;29.20;70.60;;;;;;4997186;28;20041;-48
2024/04/07 12:24:50;;;;;;;9.07;5.18;;;28.70;71.20;;;;;;5002636;28;20044;-52
2024/04/07 12:27:17;;;;;;;8.25;5.20;;;29.00;71.80;;;;;;4999772;28;20360;-50
2024/04/07 12:29:43;;;;;;;9.90;5.22;;;29.50;71.10;;;;;;5005435;28;20053;-48
2024/04/07 12:32:09;;;;;;;7.82;5.30;;;29.80;70.40;;;;;;5018176;28;20064;-47
2024/04/07 12:34:35;;;;;;;8.18;5.53;;;30.40;68.70;;;;;;5000899;28;20050;-50
2024/04/07 12:37:01;;;;;;;6.65;5.20;;;30.60;67.90;;;;;;4991287;28;20077;-52
2024/04/07 12:39:28;;;;;;;8.30;5.43;;;30.10;66.80;;;;;;5002050;28;20051;-47
2024/04/07 12:41:54;;;;;;;9.30;5.30;;;30.00;67.90;;;;;;5003905;28;20040;-54
2024/04/07 12:44:20;;;;;;;8.15;4.75;;;30.20;68.20;;;;;;5000317;28;20125;-48
2024/04/07 12:46:47;;;;;;;8.25;5.15;;;30.80;66.90;;;;;;5006027;28;20505;-48